Information Storage

This is the current data collected from the Raspberry Pis. Data is sampled asynchronously. The server scripts process and synchronize the data before storage.


Time PV Temperature (F) Irradiance (W/m2) Die Temperature (F) PV Voltage (V) Forecasted Irradiance (W/m2) Forecasted Power (W)
3/12/17 16:04:38 9.03 122.07 38.92 126.91
3/12/17 16:00:24 26.86 97.6563 39.26 125.86
3/12/17 15:54:34 50.38 122.07 40.33 124.55
3/12/17 15:49:34 46.24 170.898 41.45 125.6
3/12/17 15:44:34 30.82 244.141 43.25 128.36
3/12/17 15:39:34 20.34 97.6563 38.53 125.86
3/12/17 15:34:35 27.12 122.07 39.65 126.65
3/12/17 15:29:35 14.73 268.555 42.91 126.12
3/12/17 15:24:36 26.24 244.141 42.29 127.44
3/12/17 15:19:36 27.39 195.312 38.75 127.31
3/12/17 15:14:36 6.38 195.312 40.21 126.65
3/12/17 15:09:36 35.32 195.312 42.46 127.31
3/12/17 15:04:37 29.84 146.484 38.36 127.04
3/12/17 14:59:37 31.09 97.6563 38.64 125.2
3/12/17 14:54:37 24.25 170.898 36.67 127.17
3/12/17 14:49:38 22.98 122.07 37.96 125.99
3/12/17 14:44:38 24.17 122.07 39.54 124.81
3/12/17 14:39:38 29.39 146.484 41.28 125.47
3/12/17 14:34:38 25.16 170.898 41 126.65
3/12/17 14:29:39 43.03 122.07 37.74 126.25
3/12/17 14:24:39 25.84 122.07 38.08 125.73
3/12/17 14:19:39 46.75 122.07 37.46 125.33
3/12/17 14:14:40 27.43 195.312 39.48 126.25
3/12/17 14:09:40 18.81 317.383 42.52 127.96
3/12/17 14:04:43 24.46 195.312 38.75 125.99
3/12/17 13:59:46 22.01 219.727 42.8 126.39
3/12/17 13:54:46 34.27 146.484 38.53 126.52
3/12/17 13:49:41 20.85 170.898 37.57 126.12
3/12/17 13:44:41 19.5 268.555 40.55 128.09
3/12/17 13:39:42 41.1 146.484 37.01 127.17
3/12/17 13:34:42 29.38 146.484 36.89 126.78
3/12/17 13:29:42 20.01 146.484 35.94 126.52
3/12/17 13:24:43 33.14 146.484 36.33 126.39
3/12/17 13:19:43 17.21 170.898 36.33 127.31
3/12/17 13:14:43 36.92 170.898 34.7 127.04
3/12/17 13:09:44 28.87 146.484 36.95 127.04
3/12/17 13:04:44 21.92 219.727 36.39 127.57
3/12/17 12:59:44 33.91 146.484 34.98 127.31
3/12/17 12:54:44 32.18 97.6563 35.43 126.52
3/12/17 12:49:45 32.71 146.484 35.21 126.25
3/12/17 12:44:50 29.11 122.07 34.87 126.25
3/12/17 12:39:45 26.31 122.07 35.15 126.78
3/12/17 12:34:46 19.99 97.6563 35.83 126.39
3/12/17 12:29:46 13.48 170.898 37.79 126.78
3/12/17 12:24:46 39.33 122.07 34.7 126.91
3/12/17 12:19:47 21.37 195.312 34.87 127.83
3/12/17 12:14:52 25.62 122.07 35.54 126.39
3/12/17 12:09:47 25.97 122.07 37.29 126.78
3/12/17 12:04:48 20.27 122.07 37.12 126.78
3/12/17 11:59:48 18.79 122.07 37.06 125.86
3/12/17 11:54:48 25.21 170.898 36.16 126.78
3/12/17 11:49:48 19.15 170.898 35.66 126.39
3/12/17 11:44:49 24.08 146.484 36.72 126.65
3/12/17 11:39:49 25.7 195.312 36.84 126.39
3/12/17 11:34:49 27.69 170.898 37.68 126.25
3/12/17 11:29:50 24.73 170.898 38.64 126.65
3/12/17 11:24:55 43.69 146.484 38.19 125.99
3/12/17 11:19:50 28.52 195.312 39.43 125.86
3/12/17 11:14:51 55.52 244.141 39.43 125.86
3/12/17 11:09:51 42.2 195.312 39.65 124.68
3/12/17 11:04:51 35.22 292.969 44.66 125.6
3/12/17 10:59:51 36.46 1049.8 40.61 127.44
3/12/17 10:54:52 44.46 1098.63 42.69 130.72
3/12/17 10:49:52 61.12 415.039 44.94 124.81
3/12/17 10:44:57 21.76 146.484 39.93 124.15
3/12/17 10:39:53 40.07 122.07 45.5 119.55
3/12/17 10:34:58 44.44 292.969 40.94 124.02
3/12/17 10:29:53 29.76 73.2422 37.68 121.39
3/12/17 10:24:54 38.81 903.32 44.71 128.49
3/12/17 10:19:54 19.65 122.07 44.04 117.98
3/12/17 10:14:54 19.54 854.492 40.94 127.83
3/12/17 10:09:54 19.3 317.383 38.97 123.36
3/12/17 10:04:55 23.39 781.25 39.76 127.7
3/12/17 09:59:55 26.78 732.422 35.49 129.28
3/12/17 09:54:55 44.99 781.25 35.43 128.62
3/12/17 09:49:56 17.08 24.4141 35.77 119.42
3/12/17 09:44:56 32.23 0 32.96 119.42
3/12/17 09:39:56 14.14 634.766 34.64 128.62
3/12/17 09:34:57 23.94 659.18 34.19 128.88
3/12/17 09:29:57 3.74 244.141 32.73 123.63
3/12/17 09:24:57 9.35 537.109 30.2 129.67
3/12/17 09:19:58 26.45 537.109 31.94 129.93
3/12/17 09:14:58 15.99 463.867 32 131.25
3/12/17 09:09:58 -0.71 24.4141 27.84 123.23
3/12/17 09:04:59 -3.67 0 27.95 118.5
3/12/17 08:59:59 5.06 0 28.74 121.39
3/12/17 08:54:59 15.48 341.797 28.4 128.75
3/12/17 08:50:00 2.07 415.039 29.19 128.75
3/12/17 08:45:00 2.76 366.211 28.17 128.75
3/12/17 08:40:00 -1.94 366.211 28.74 128.62
3/12/17 08:35:06 2.06 366.211 27.72 128.23
3/12/17 08:30:01 1.6 317.383 28.23 127.96
3/12/17 08:25:01 6.75 292.969 28.06 127.7
3/12/17 08:20:01 -2.86 317.383 27.05 127.17
3/12/17 08:15:05 0.31 244.141 26.99 126.78
3/12/17 08:10:02 -10.36 170.898 26.21 126.12
3/12/17 08:05:02 -5.31 195.312 25.59 125.2
3/12/17 08:00:03 -4.64 97.6563 25.31 124.15
3/12/17 07:55:03 -1.57 0 24.41 116.27
3/12/17 07:50:03 -7.18 0 24.63 114.04
3/12/17 07:45:04 -6.61 0 24.52 115.61
3/12/17 07:40:04 -6.95 0 26.54 109.7
3/12/17 07:35:04 -6.06 0 25.87 106.02
3/12/17 07:30:05 -8.09 0 24.91 102.87
3/12/17 07:25:05 -5.8 0 24.18 99.58
3/12/17 07:20:05 -6.27 0 23.17 94.86
3/12/17 07:15:11 -6.25 0 23.73 87.76
3/12/17 07:10:06 -3.62 0 24.18 82.77
3/12/17 07:05:06 -6.71 0 24.41 74.36
3/12/17 07:00:07 -4.34 0 25.76 43.75
3/12/17 06:55:07 -13.08 0 24.52 21.55
3/12/17 06:50:07 -4.09 0 23.56 7.62
3/12/17 06:45:11 -4.08 0 24.8 2.89
3/12/17 06:40:13 -3.74 0 24.69 0.92
3/12/17 06:35:08 -0.01 0 25.64 0.26
3/12/17 06:30:08 -5.36 0 26.09 0
3/12/17 06:25:09 -4.52 0 25.19 0
3/12/17 06:20:09 -2.94 0 26.26 0.13
3/12/17 06:15:09 -8.48 0 24.8 0
3/12/17 06:10:20 -4.62 0 25.02 0
3/12/17 06:05:10 -2.74 0 25.81 0
3/12/17 06:00:10 -5.18 0 26.26 0
3/12/17 05:55:11 -19.12 0 26.49 0
3/12/17 05:50:11 -6.76 0 25.64 0
3/12/17 05:45:11 -8.8 0 26.54 0
3/12/17 05:40:17 -6.9 0 25.31 0.13
3/12/17 05:35:12 -4.57 0 24.52 0
3/12/17 05:30:12 -7.44 0 25.59 0
3/12/17 05:25:13 -5 0 26.43 0.53
3/12/17 05:20:16 -4.08 0 25.19 0.13
3/12/17 05:15:13 -4.58 0 24.86 0
3/12/17 05:10:14 -3.31 0 26.21 0
3/12/17 05:05:14 -3.19 0 26.49 0.39
3/12/17 05:00:14 -1.4 0 28.29 0
3/12/17 04:55:15 -4.32 0 27.95 0
3/12/17 04:50:15 -8.39 0 26.71 0.53
3/12/17 04:45:15 -1.88 0 26.6 0.66
3/12/17 04:40:15 0.35 0 27.16 0.26
3/12/17 04:35:16 -1.37 0 28.06 0.53
3/12/17 04:30:16 7.18 0 27.11 0
3/12/17 04:25:16 0.66 0 26.99 0.13
3/12/17 04:20:17 -5.26 0 26.94 0
3/12/17 04:15:17 -0.08 0 27.5 0
3/12/17 04:10:17 -1.37 0 29.07 0
3/12/17 04:05:18 -2.97 0 28.57 0.66
3/12/17 04:00:18 -6.09 0 26.43 0
3/12/17 03:55:18 -3.53 0 26.21 0
3/12/17 03:50:19 -1.27 0 27.16 0.26
3/12/17 03:45:19 -6.33 0 27.72 0
3/12/17 03:40:19 -3.28 0 28.46 0.39
3/12/17 03:35:20 0.99 0 28.29 0
3/12/17 03:30:20 -4.35 0 26.77 0.79
3/12/17 03:25:20 -3.57 0 26.71 0
3/12/17 03:20:21 -2.76 0 26.82 0.26
3/12/17 03:15:21 -1.38 0 27.33 0.53
3/12/17 03:10:21 -4.07 0 27.11 0.13
3/12/17 03:05:26 -1.06 0 28.57 0.26
3/12/17 03:00:25 2.46 0 28.4 0
3/12/17 01:55:22 -5.43 0 28.51 0.66
3/12/17 01:50:22 -1.41 0 27.56 0.66
3/12/17 01:45:23 -1.57 0 25.98 0
3/12/17 01:40:23 1.8 0 27.11 0.79
3/12/17 01:35:23 3.37 0 26.66 0.66
3/12/17 01:30:24 -3.39 0 27.95 0.79
3/12/17 01:25:29 0.84 0 28.23 0.92
3/12/17 01:20:24 -5.02 0 26.32 0.79
3/12/17 01:15:35 -2.54 0 25.36 0.39
3/12/17 01:10:25 0.18 0 25.53 0.39
3/12/17 01:05:30 1.75 0 27.22 0.79
3/12/17 01:00:31 1.97 0 25.76 0
3/12/17 00:55:26 0.84 0 26.04 0.66
3/12/17 00:50:26 -2.18 0 26.88 0.26
3/12/17 00:45:27 -1.66 0 25.87 0.13
3/12/17 00:40:27 -1.9 0 25.76 1.18
3/12/17 00:35:27 -1.14 0 25.64 0.26
3/12/17 00:30:28 -2.46 0 25.42 0.53
3/12/17 00:25:28 -2.48 0 25.7 0.66
3/12/17 00:20:28 -1.57 0 25.59 0.79
3/12/17 00:15:28 -3.99 0 24.91 0.92
3/12/17 00:10:29 -4.98 0 25.42 0.92
3/12/17 00:05:29 -5.31 0 26.32 0.26
3/12/17 00:00:29 -5.74 0 27.05 0.92
3/11/17 23:55:30 -6.94 0 26.94 0
3/11/17 23:50:30 -24.12 0 25.64 0.66
3/11/17 23:45:30 -4.92 0 25.36 0
3/11/17 23:40:36 -5.12 0 25.47 0.26
3/11/17 23:35:31 -5.39 0 25.59 0.92
3/11/17 23:30:31 -3.29 0 25.92 0.53
3/11/17 23:25:32 -8.4 0 26.32 0
3/11/17 23:20:32 -8.76 0 26.71 0.13
3/11/17 23:15:32 -6.52 0 26.82 1.05
3/11/17 23:10:33 -13.76 0 27.33 0
3/11/17 23:05:33 -4.54 0 26.21 0.26
3/11/17 23:00:33 -4.55 0 26.49 0.92
3/11/17 22:55:34 -5.4 0 26.26 1.05
3/11/17 22:50:34 -7.15 0 25.92 0.39
3/11/17 22:45:34 -5.78 0 26.88 0.53
3/11/17 22:40:35 -4.82 0 25.87 0.39
3/11/17 22:35:35 -2 0 27.05 0.39
3/11/17 22:30:36 -12.59 0 26.43 0.79
3/11/17 22:25:35 -4.89 0 27.33 0.66
3/11/17 22:20:36 -0.8 0 27.05 0.66
3/11/17 22:15:36 -5.97 0 26.99 0.79
3/11/17 22:10:36 -4.72 0 26.37 0.92
3/11/17 22:05:42 -5.73 0 26.77 0.39
3/11/17 22:00:37 -8.42 0 26.54 0.53
3/11/17 21:55:37 -2.49 0 26.77 0.53
3/11/17 21:50:38 -11.04 0 26.88 0.53
3/11/17 21:45:38 -3.4 0 27.89 0
3/11/17 21:40:43 -3.18 0 27.56 0.53
3/11/17 21:35:39 -1.09 0 29.07 0.53
3/11/17 21:30:39 -7.19 0 28.12 0.39
3/11/17 21:25:39 -4.28 0 27.44 0.66
3/11/17 21:20:40 -2.82 0 28.29 0.13
3/11/17 21:15:40 -2.23 0 27.33 0.26
3/11/17 21:10:46 -13.47 0 27.56 0
3/11/17 21:05:41 -1.56 0 27.5 0.66
3/11/17 21:00:41 -3.42 0 27.78 0
3/11/17 20:55:41 -0.47 0 27.27 0
3/11/17 20:50:41 -0.12 0 28.01 0
3/11/17 20:45:42 -1.06 0 28.23 0.53
3/11/17 20:40:42 -1.22 0 28.46 0.66
3/11/17 20:35:42 -1.14 0 28.17 0
3/11/17 20:30:48 -1.16 0 28.4 0.26
3/11/17 20:25:43 -4.21 0 28.46 0.66
3/11/17 20:20:43 -4.25 0 28.29 0
3/11/17 20:15:44 -1.93 0 27.78 0
3/11/17 20:10:44 -6.32 0 28.12 0.13
3/11/17 20:05:44 -2.38 73.2422 28.68 0
3/11/17 20:00:45 -0.03 0 28.79 0.39
3/11/17 19:55:45 -5.82 0 28.4 0.53
3/11/17 19:50:45 -2.45 0 28.68 0.26
3/11/17 19:45:46 -0.53 0 28.4 0
3/11/17 19:40:46 0.59 0 29.07 0.53
3/11/17 19:35:46 -5.45 0 29.07 0
3/11/17 19:30:46 -2.16 0 28.68 0
3/11/17 19:25:47 -0.6 0 29.07 0.39
3/11/17 19:20:47 -2.68 0 28.91 0.39
3/11/17 19:15:47 -5.72 0 29.47 0
3/11/17 19:10:48 -55.56 0 29.3 0.26
3/11/17 19:05:48 -4.37 0 29.97 0.39
3/11/17 19:00:48 -2.55 0 29.19 0
3/11/17 18:55:59 -16.73 0 29.92 0.26
3/11/17 18:50:54 -0.49 0 29.58 0.53
3/11/17 18:45:52 -1.5 0 29.13 0
3/11/17 18:40:50 -2.8 0 29.02 0.13
3/11/17 18:35:50 -3.85 0 28.46 1.31
3/11/17 18:30:55 -0.03 0 29.75 4.2
3/11/17 18:25:56 -10.16 24.4141 29.36 12.74
3/11/17 18:20:51 -1.11 0 28.96 32.71
3/11/17 18:15:51 0.3 0 29.36 54.26
3/11/17 18:10:51 -0.72 0 29.13 70.02
3/11/17 18:05:52 -0.62 0 29.64 82.51
3/11/17 18:00:52 5.32 0 30.03 92.23
3/11/17 17:55:52 2.94 0 30.03 100.11
3/11/17 17:50:53 0.03 0 30.03 105.89
3/11/17 17:45:53 -0.19 0 30.31 108.65
3/11/17 17:40:53 -0.03 0 30.09 111.41
3/11/17 17:35:54 2.14 0 29.86 111.28
3/11/17 17:30:54 -0.8 0 30.37 112.46
3/11/17 17:25:54 0.91 0 30.87 114.3
3/11/17 17:20:56 0.97 0 30.48 117.06
3/11/17 17:15:55 -0.32 0 30.65 117.06
3/11/17 17:11:00 1.41 0 31.21 116.8
3/11/17 17:05:55 1.02 0 31.32 116.53
3/11/17 17:00:56 5.43 0 32.68 117.19
3/11/17 16:55:56 1.77 0 31.89 117.58
3/11/17 16:50:56 5.28 0 32.06 117.58
3/11/17 16:45:57 1.29 0 32.79 119.95
3/11/17 16:40:57 5.47 0 32.9 122.71
3/11/17 16:35:57 11.08 0 32.96 125.6
3/11/17 16:30:58 6.59 0 34.25 126.25
3/11/17 16:26:03 9.84 0 34.93 126.78
3/11/17 16:21:03 19.26 244.141 40.33 126.91
3/11/17 16:15:59 19.08 292.969 51.58 127.83
3/11/17 16:10:59 45.88 292.969 48.88 127.96
3/11/17 16:05:59 72.84 317.383 51.24 127.7
3/11/17 16:00:59 44.45 366.211 50.17 129.01
3/11/17 15:56:00 12.12 439.453 46.46 130.06
3/11/17 15:51:00 15.27 170.898 39.14 130.46
3/11/17 15:46:00 48.24 146.484 48.76 125.47
3/11/17 15:41:01 26.82 122.07 38.24 126.25
3/11/17 15:36:01 43.71 170.898 42.07 123.5
3/11/17 15:31:01 21.82 512.695 50.73 130.33
3/11/17 15:26:02 18.49 537.109 44.83 130.33
3/11/17 15:21:02 0.3 512.695 58.78 128.23
3/11/17 15:16:02 -1.8 561.523 55.34 129.67
3/11/17 15:11:03 -11.6 170.898 47.64 126.52
3/11/17 15:06:03 12.26 73.2422 33.91 124.94
3/11/17 15:01:03 13.36 48.8281 33.07 125.33
3/11/17 14:56:03 14.03 97.6563 36.39 125.2
3/11/17 14:51:04 28.85 146.484 46.18 123.5
3/11/17 14:46:04 47.15 634.766 54.16 130.33
3/11/17 14:41:04 34.99 122.07 41.45 124.94
3/11/17 14:36:05 25.55 805.664 42.8 133.74
3/11/17 14:31:24 59.04 122.07 43.59 123.89
3/11/17 14:26:11 -9.38 830.078 46.68 132.95
3/11/17 14:21:06 28.03 146.484 37.4 126.39
3/11/17 14:16:06 14.04 292.969 39.48 130.59
3/11/17 14:11:17 20.31 146.484 38.13 125.07
3/11/17 14:06:07 3.09 805.664 52.25 130.72
3/11/17 14:01:07 23.54 146.484 38.08 124.02
3/11/17 13:56:07 9.23 244.141 53.15 122.31
3/11/17 13:51:07 55.66 927.734 61.36 128.36
3/11/17 13:46:13 24.19 903.32 58.61 129.28
3/11/17 13:41:08 17.21 708.008 48.54 129.93
3/11/17 13:36:08 15.01 170.898 37.85 125.07
3/11/17 13:31:09 20.94 268.555 44.77 125.07
3/11/17 13:26:09 36.37 878.906 47.53 129.41
3/11/17 13:21:09 25.71 195.312 36.28 126.25
3/11/17 13:16:10 64.23 170.898 40.16 123.5
3/11/17 13:11:10 24.43 244.141 39.14 125.73
3/11/17 13:06:15 27.89 170.898 37.57 127.17
3/11/17 13:01:10 45.53 195.312 38.86 125.73
3/11/17 12:56:11 40.64 122.07 40.44 121.13
3/11/17 12:51:11 28.21 195.312 45.05 122.58
3/11/17 12:46:16 5.81 317.383 44.88 130.06
3/11/17 12:41:12 25.68 244.141 39.71 125.99
3/11/17 12:36:13 18.42 537.109 47.97 125.6
3/11/17 12:31:12 39.75 878.906 51.52 126.78
3/11/17 12:26:18 69.25 1147.46 58.94 129.93
3/11/17 12:21:13 13.35 195.312 37.51 127.57
3/11/17 12:16:13 19.16 268.555 38.92 126.65
3/11/17 12:11:14 42.21 317.383 41.11 125.33
3/11/17 12:06:14 40.66 219.727 36.61 123.89
3/11/17 12:01:14 20.06 1196.29 60.07 127.17
3/11/17 11:56:29 62.39 1000.98 54.11 127.57
3/11/17 11:51:21 42.03 366.211 51.01 123.36
3/11/17 11:46:15 -37.32 1147.46 55.51 124.81
3/11/17 11:41:15 33.4 366.211 57.48 121
3/11/17 11:36:16 19.28 415.039 42.91 129.67
3/11/17 11:31:16 44.96 415.039 46.96 122.44
3/11/17 11:26:16 72.83 1196.29 59.45 126.39
3/11/17 11:21:26 62.36 1171.88 53.21 127.44
3/11/17 11:16:22 62.03 1098.63 59.11 126.25
3/11/17 11:11:17 75.81 1123.05 53.6 129.14
3/11/17 11:06:17 16.93 366.211 39.82 127.7
3/11/17 11:01:18 5.85 537.109 38.81 129.8
3/11/17 10:56:18 17.54 244.141 39.31 124.81
3/11/17 10:51:18 36.79 1171.88 47.02 130.06
3/11/17 10:46:19 12.55 659.18 43.19 129.41
3/11/17 10:41:19 7.29 195.312 35.77 127.17
3/11/17 10:36:19 72.34 170.898 36.67 126.12
3/11/17 10:31:20 11.01 195.312 35.77 127.04
3/11/17 10:26:20 39.36 146.484 36.61 125.6
3/11/17 10:21:20 -39.22 146.484 36.05 125.33
3/11/17 10:16:21 19.63 195.312 37.79 122.58
3/11/17 10:11:21 16.68 878.906 42.35 128.88
3/11/17 10:06:22 1.56 1000.98 37.23 131.64
3/11/17 10:01:21 7.8 73.2422 35.71 122.97
3/11/17 09:56:23 40.56 97.6563 34.25 122.05
3/11/17 09:51:22 34.15 683.594 41.17 130.72
3/11/17 09:46:22 26.58 1000.98 41.06 132.04
3/11/17 09:41:23 36.01 830.078 41.62 131.38
3/11/17 09:36:23 8.62 122.07 33.63 126.39
3/11/17 09:31:23 16.38 830.078 35.71 133.48
3/11/17 09:26:24 6.53 195.312 36.16 126.39
3/11/17 09:21:25 9.02 122.07 35.32 131.77
3/11/17 09:16:24 28.73 830.078 38.24 131.12
3/11/17 09:11:25 19.61 830.078 36.89 130.06
3/11/17 09:06:25 5.07 830.078 35.94 126.78
3/11/17 09:01:25 10.84 756.836 35.88 130.59
3/11/17 08:56:31 5.46 732.422 33.46 128.09
3/11/17 08:51:26 19.94 268.555 35.32 122.31
3/11/17 08:46:27 2.25 708.008 32.84 124.02
3/11/17 08:41:26 9.3 610.352 32.56 129.93
3/11/17 08:36:27 4.74 634.766 30.82 129.93
3/11/17 08:31:27 5.53 585.938 30.42 130.06
3/11/17 08:26:27 6.08 561.523 30.14 130.46
3/11/17 08:21:28 1.54 561.523 28.62 131.64
3/11/17 08:16:28 -6.75 488.281 25.7 132.95
3/11/17 08:11:28 3.33 24.4141 24.35 124.55
3/11/17 08:06:29 -6.87 0 24.74 120.34
3/11/17 08:01:29 -7.72 0 26.04 119.03
3/11/17 07:56:34 -0.74 0 23.84 122.71
3/11/17 07:51:30 -6.12 366.211 24.8 129.93
3/11/17 07:46:30 0.47 390.625 23.9 129.93
3/11/17 07:41:30 -5.52 341.797 24.52 129.54
3/11/17 07:36:31 2.64 317.383 25.19 129.41
3/11/17 07:31:31 -6 292.969 23.84 129.01
3/11/17 07:26:31 -5.6 317.383 24.46 128.75
3/11/17 07:21:32 -6.73 292.969 23.51 128.49
3/11/17 07:16:32 -6.53 219.727 23.39 127.83
3/11/17 07:11:32 1.69 244.141 23.17 127.17
3/11/17 07:06:33 -6.58 170.898 23.11 126.25
3/11/17 07:01:33 -7.11 170.898 23 125.2
3/11/17 06:56:33 -10.75 97.6563 21.93 123.63
3/11/17 06:51:34 -13.13 0 20.58 115.61
3/11/17 06:46:34 -17.43 0 20.64 115.74
3/11/17 06:41:34 -14.06 0 20.13 112.72
3/11/17 06:36:34 -14.94 0 20.41 110.36
3/11/17 06:31:35 -12.41 0 20.69 107.6
3/11/17 06:26:35 -11.35 0 20.64 103.92
3/11/17 06:21:36 -11.4 0 20.81 98.93
3/11/17 06:16:36 -12.82 0 20.07 91.57
3/11/17 06:11:41 -12.53 0 20.47 81.98
3/11/17 06:06:36 -15.89 0 20.41 68.32
3/11/17 06:01:37 -14.22 0 20.52 47.69
3/11/17 05:56:37 -13.03 0 20.24 24.96
3/11/17 05:51:37 -13.86 0 21.26 7.36
3/11/17 05:46:38 -12.97 0 21.03 2.36
3/11/17 05:41:38 -12.97 0 21.48 0.26
3/11/17 05:36:38 -24.45 0 21.76 0.13
3/11/17 05:31:39 -15.36 0 19.79 0.13
3/11/17 05:26:45 -12.9 0 20.52 0.13
3/11/17 05:21:39 -13.2 0 21.93 0
3/11/17 05:16:40 -13.27 0 20.64 0.26
3/11/17 05:11:40 -12.86 0 21.26 0.26
3/11/17 05:06:41 -10.39 0 20.92 0
3/11/17 05:01:41 -14.92 0 22.66 0
3/11/17 04:56:41 -33.8 0 22.94 0
3/11/17 04:51:46 -11.4 0 22.55 0
3/11/17 04:46:42 -9.37 0 24.86 0
3/11/17 04:41:42 -8.51 0 22.66 0
3/11/17 04:36:42 -17.69 0 23.73 0
3/11/17 04:31:43 -24.23 0 24.18 0
3/11/17 04:26:43 -17.62 0 23.67 0
3/11/17 04:21:43 -1.45 0 22.55 0
3/11/17 04:16:44 -11.01 0 24.57 0
3/11/17 04:11:44 -11.22 0 21.82 0
3/11/17 04:06:44 -8.45 0 22.16 0
3/11/17 04:01:45 -2.99 0 22.77 0
3/11/17 03:56:45 -7.66 0 22.83 0
3/11/17 03:51:50 -6.35 0 24.35 0.26
3/11/17 03:46:46 -4.93 0 25.31 0
3/11/17 03:41:46 -5.93 0 24.24 0
3/11/17 03:36:46 -4.3 0 24.41 0
3/11/17 03:31:47 0.18 0 23.45 0
3/11/17 03:26:52 -11.1 0 23.73 0.13
3/11/17 03:21:47 -9.37 0 22.44 0.39
3/11/17 03:16:49 -13.35 0 23.17 0
3/11/17 03:11:48 -10.61 0 23.51 0.53
3/11/17 03:06:48 -23.11 0 23.34 0
3/11/17 03:01:53 -25.11 0 24.35 0
3/11/17 02:56:50 -15.42 0 23.28 0.39
3/11/17 02:51:49 -7.91 0 23.9 0.13
3/11/17 02:46:49 -5.78 0 24.69 0.53
3/11/17 02:41:55 -8.62 0 25.25 0
3/11/17 02:36:53 -7.65 0 25.64 0.13
3/11/17 02:31:50 -14.15 0 24.91 0.26
3/11/17 02:26:51 -9.71 0 25.02 0
3/11/17 02:21:51 -6.97 0 24.97 0
3/11/17 02:16:51 -6.67 0 25.36 0
3/11/17 02:11:57 -5.28 0 24.63 0
3/11/17 02:06:52 -9.67 0 24.46 0
3/11/17 02:01:52 -3.11 0 25.36 0
3/11/17 01:56:53 -1.01 0 26.71 0
3/11/17 01:51:53 -4.13 0 26.09 0
3/11/17 01:46:53 -7.36 0 26.32 0.13
3/11/17 01:41:59 -5.67 0 25.64 0
3/11/17 01:37:03 30.17 0 26.6 0
3/11/17 01:31:54 -29.63 0 25.81 0
3/11/17 01:26:55 -2.69 0 26.09 0.26
3/11/17 01:21:55 -2.76 0 27.89 0.66
3/11/17 01:16:58 6.15 0 28.06 0
3/11/17 01:11:56 15.99 0 28.01 0.53
3/11/17 01:06:56 5.73 0 28.34 0.13
3/11/17 01:01:59 9.55 0 28.46 0.39
3/11/17 00:56:56 20.36 0 29.58 0.79
3/11/17 00:52:11 6.39 0 29.02 0.26
3/11/17 00:46:57 2.37 0 29.97 0.79
3/11/17 00:41:57 -4.51 0 28.4 0.26
3/11/17 00:36:58 -4.25 0 27.95 0.13
3/11/17 00:31:58 1.84 0 27.33 0.66
3/11/17 00:26:58 0.02 0 28.01 0.26
3/11/17 00:22:07 0.06 0 28.51 0
3/11/17 00:16:59 -2.01 0 28.4 0
3/11/17 00:11:59 -0.94 0 27.05 0.92
3/11/17 00:07:00 -5.79 0 27.16 0.53
3/11/17 00:02:00 -4.49 0 27.16 0.66
3/10/17 23:57:00 -5.39 73.2422 26.99 0
3/10/17 23:52:01 -5.27 0 27.22 0.53
3/10/17 23:47:01 -5.81 0 28.74 0
3/10/17 23:42:06 -0.85 0 29.19 0.13
3/10/17 23:37:01 -1.46 0 28.34 0
3/10/17 23:32:02 -3.33 0 27.89 0.79
3/10/17 23:27:02 -14.37 0 27.95 0.13
3/10/17 23:22:02 -3.15 0 29.36 0.39
3/10/17 23:17:03 0.14 0 30.54 0
3/10/17 23:12:03 -8.74 0 30.59 0.53
3/10/17 23:07:03 11.69 0 29.81 0.53
3/10/17 23:02:04 7.5 0 29.19 0
3/10/17 22:57:04 6 0 30.09 0.26
3/10/17 22:52:04 -4.77 0 29.81 0.13
3/10/17 22:47:05 -5.88 0 30.31 0
3/10/17 22:42:05 0.02 0 29.36 0.79
3/10/17 22:37:05 -0.19 0 29.36 0.13
3/10/17 22:32:05 -0.61 0 29.97 0.79
3/10/17 22:27:06 1.83 0 30.31 0.53
3/10/17 22:22:06 12.37 0 30.71 0.53
3/10/17 22:17:12 14.49 0 32.06 0.53
3/10/17 22:12:07 11.32 0 32.84 0.26
3/10/17 22:07:07 8.99 0 32.62 0.92
3/10/17 22:02:13 -18.56 0 32.51 0
3/10/17 21:57:08 15.5 0 33.01 0.79
3/10/17 21:52:08 3.47 0 32.45 0.53
3/10/17 21:47:08 18.24 0 33.29 1.58
3/10/17 21:42:09 17.84 0 33.46 0.92
3/10/17 21:37:09 12.11 0 33.24 0.39
3/10/17 21:32:09 7.12 0 33.69 0.39

Previous 1 2 3 4 5 6 7 8 9 10 11 12 13 14 15 16 17